Time;durP1;ratioP1;P1;durP2;ratioP2;P2;SDS_P1;SDS_P2;PMS_P1;PMS_P2;Temp;Humidity;BMP_temperature;BMP_pressure;BME280_temperature;BME280_humidity;BME280_pressure;Samples;Min_cycle;Max_cycle;Signal;HPM_P1;HPM_P2
2023/07/23 00:00:20;;;;;;;4.57;0.70;;;;;;;;;;4977305;28;20101;-69
2023/07/23 00:02:46;;;;;;;2.78;0.73;;;;;;;;;;4978102;28;20034;-69
2023/07/23 00:05:11;;;;;;;1.15;0.60;;;;;;;;;;4976300;28;20478;-68
2023/07/23 00:07:36;;;;;;;4.63;0.80;;;;;;;;;;4977719;28;20058;-69
2023/07/23 00:10:02;;;;;;;2.53;0.88;;;;;;;;;;4977604;28;20502;-69
2023/07/23 00:12:27;;;;;;;1.83;0.70;;;;;;;;;;4977915;28;20456;-69
2023/07/23 00:14:53;;;;;;;5.63;0.70;;;;;;;;;;4976508;28;20376;-69
2023/07/23 00:17:18;;;;;;;2.17;0.50;;;;;;;;;;4977942;28;20042;-69
2023/07/23 00:19:44;;;;;;;2.97;0.98;;;;;;;;;;4977411;28;20034;-69
2023/07/23 00:22:09;;;;;;;2.92;0.50;;;;;;;;;;4978045;28;20046;-69
2023/07/23 00:24:34;;;;;;;6.38;0.80;;;;;;;;;;4977345;28;20043;-69
2023/07/23 00:26:59;;;;;;;2.45;0.50;;;;;;;;;;4978076;28;20031;-69
2023/07/23 00:29:25;;;;;;;1.35;0.60;;;;;;;;;;4977389;28;20034;-69
2023/07/23 00:31:50;;;;;;;5.00;0.80;;;;;;;;;;4977600;28;20093;-69
2023/07/23 00:34:16;;;;;;;2.50;0.80;;;;;;;;;;4977192;28;20031;-69
2023/07/23 00:36:41;;;;;;;1.60;0.55;;;;;;;;;;4977176;28;20039;-69
2023/07/23 00:39:06;;;;;;;2.10;0.60;;;;;;;;;;4976601;28;20039;-69
2023/07/23 00:41:32;;;;;;;2.10;0.60;;;;;;;;;;4974263;28;20519;-69
2023/07/23 00:43:57;;;;;;;1.02;0.57;;;;;;;;;;4977149;28;20125;-69
2023/07/23 00:46:23;;;;;;;1.27;0.50;;;;;;;;;;4977160;28;20047;-69
2023/07/23 00:48:48;;;;;;;2.42;0.60;;;;;;;;;;4975862;28;20058;-69
2023/07/23 00:51:14;;;;;;;3.72;0.70;;;;;;;;;;4977257;28;20047;-69
2023/07/23 00:53:39;;;;;;;2.33;0.80;;;;;;;;;;4975337;28;20546;-69
2023/07/23 00:56:05;;;;;;;3.20;0.60;;;;;;;;;;4977007;28;20031;-69
2023/07/23 00:58:30;;;;;;;2.08;0.60;;;;;;;;;;4976993;28;20047;-69
2023/07/23 01:00:56;;;;;;;1.40;0.60;;;;;;;;;;4976189;28;20057;-69
2023/07/23 01:03:22;;;;;;;0.93;0.47;;;;;;;;;;4976944;28;20054;-69
2023/07/23 01:05:49;;;;;;;1.08;0.50;;;;;;;;;;4975454;28;20086;-69
2023/07/23 01:08:14;;;;;;;1.73;0.68;;;;;;;;;;4975115;28;20039;-69
2023/07/23 01:10:40;;;;;;;4.20;0.60;;;;;;;;;;4976011;28;20085;-69
2023/07/23 01:13:06;;;;;;;1.55;0.50;;;;;;;;;;4975932;28;20066;-69
2023/07/23 01:15:32;;;;;;;1.90;0.40;;;;;;;;;;4976316;28;20069;-69
2023/07/23 01:17:59;;;;;;;3.40;0.60;;;;;;;;;;4975519;28;20472;-69
2023/07/23 01:20:24;;;;;;;4.22;0.80;;;;;;;;;;4975119;28;20046;-69
2023/07/23 01:22:50;;;;;;;0.90;0.45;;;;;;;;;;4975282;28;20042;-69
2023/07/23 01:25:15;;;;;;;0.98;0.60;;;;;;;;;;4976359;28;20031;-69
2023/07/23 01:27:40;;;;;;;3.75;0.73;;;;;;;;;;4976463;28;20042;-69
2023/07/23 01:30:10;;;;;;;4.38;0.70;;;;;;;;;;4976186;28;20039;-69
2023/07/23 01:32:37;;;;;;;1.75;0.70;;;;;;;;;;5007062;28;20035;-69
2023/07/23 01:35:14;;;;;;;3.78;0.93;;;;;;;;;;4974339;28;20454;-69
2023/07/23 01:37:40;;;;;;;2.53;0.90;;;;;;;;;;4976098;28;20045;-70
2023/07/23 01:40:06;;;;;;;3.08;1.02;;;;;;;;;;4974885;28;20118;-69
2023/07/23 01:42:31;;;;;;;3.13;0.90;;;;;;;;;;5007492;28;20117;-69
2023/07/23 01:45:02;;;;;;;3.92;1.02;;;;;;;;;;4974979;28;20131;-69
2023/07/23 01:47:27;;;;;;;3.60;1.20;;;;;;;;;;4974829;28;20042;-69
2023/07/23 01:49:53;;;;;;;6.30;1.70;;;;;;;;;;4974701;28;20046;-69
2023/07/23 01:52:18;;;;;;;9.77;1.50;;;;;;;;;;4974775;28;20043;-69
2023/07/23 01:54:43;;;;;;;6.47;2.03;;;;;;;;;;4975643;28;20039;-69
2023/07/23 01:57:09;;;;;;;4.20;1.65;;;;;;;;;;4976056;28;20029;-69
2023/07/23 01:59:34;;;;;;;10.23;1.77;;;;;;;;;;4975235;28;20042;-70
2023/07/23 02:02:00;;;;;;;7.63;1.65;;;;;;;;;;4975642;28;20078;-69
2023/07/23 02:04:25;;;;;;;3.75;1.15;;;;;;;;;;4975611;28;20034;-69
2023/07/23 02:06:50;;;;;;;4.57;1.70;;;;;;;;;;4975457;28;20126;-69
2023/07/23 02:09:16;;;;;;;7.22;1.67;;;;;;;;;;4975566;28;20030;-69
2023/07/23 02:11:41;;;;;;;6.18;1.20;;;;;;;;;;4975592;28;20046;-69
2023/07/23 02:14:08;;;;;;;10.73;1.48;;;;;;;;;;4975571;28;20038;-69
2023/07/23 02:16:33;;;;;;;5.30;1.05;;;;;;;;;;4975740;28;20050;-69
2023/07/23 02:18:59;;;;;;;5.40;1.02;;;;;;;;;;4974172;28;20096;-69
2023/07/23 02:21:25;;;;;;;4.75;1.10;;;;;;;;;;4975071;28;20047;-69
2023/07/23 02:23:51;;;;;;;5.95;1.33;;;;;;;;;;4975261;28;20419;-69
2023/07/23 02:26:16;;;;;;;3.03;0.95;;;;;;;;;;4975436;28;20038;-69
2023/07/23 02:28:43;;;;;;;6.78;1.00;;;;;;;;;;4974823;28;20069;-69
2023/07/23 02:31:09;;;;;;;4.55;1.23;;;;;;;;;;4975450;28;20042;-69
2023/07/23 02:33:34;;;;;;;2.10;0.73;;;;;;;;;;4975269;28;20038;-69
2023/07/23 02:36:00;;;;;;;6.35;0.90;;;;;;;;;;4974690;28;20043;-69
2023/07/23 02:38:25;;;;;;;1.85;0.70;;;;;;;;;;4974707;28;20062;-69
2023/07/23 02:40:55;;;;;;;1.90;0.73;;;;;;;;;;4974732;28;20062;-69
2023/07/23 02:43:21;;;;;;;2.80;0.70;;;;;;;;;;4973826;28;20035;-69
2023/07/23 02:45:46;;;;;;;5.10;1.33;;;;;;;;;;5006159;28;20493;-69
2023/07/23 02:48:11;;;;;;;3.78;0.82;;;;;;;;;;4975250;28;20376;-69
2023/07/23 02:50:39;;;;;;;5.00;0.80;;;;;;;;;;4974449;28;20062;-69
2023/07/23 02:53:04;;;;;;;3.58;0.80;;;;;;;;;;4973663;28;20131;-69
2023/07/23 02:55:29;;;;;;;8.10;1.00;;;;;;;;;;4974117;28;20035;-69
2023/07/23 02:57:55;;;;;;;2.80;0.70;;;;;;;;;;4974738;28;20043;-69
2023/07/23 03:00:21;;;;;;;1.77;0.82;;;;;;;;;;4973945;28;20101;-69
2023/07/23 03:02:47;;;;;;;2.92;0.98;;;;;;;;;;4974739;28;20043;-69
2023/07/23 03:05:13;;;;;;;5.22;1.13;;;;;;;;;;4974145;28;20429;-69
2023/07/23 03:07:38;;;;;;;1.77;0.70;;;;;;;;;;4974528;28;20042;-69
2023/07/23 03:10:04;;;;;;;2.20;0.77;;;;;;;;;;4974325;28;20034;-69
2023/07/23 03:12:29;;;;;;;3.35;1.10;;;;;;;;;;4974690;28;20042;-69
2023/07/23 03:14:54;;;;;;;2.35;1.13;;;;;;;;;;4974526;28;20039;-69
2023/07/23 03:17:20;;;;;;;6.10;1.17;;;;;;;;;;4974770;28;20105;-69
2023/07/23 03:19:45;;;;;;;4.70;0.80;;;;;;;;;;4974025;28;20070;-69
2023/07/23 03:22:10;;;;;;;2.65;0.88;;;;;;;;;;4974319;28;20027;-69
2023/07/23 03:24:36;;;;;;;2.95;1.08;;;;;;;;;;4972950;28;20042;-69
2023/07/23 03:27:01;;;;;;;2.53;0.70;;;;;;;;;;4974267;28;20035;-69
2023/07/23 03:29:26;;;;;;;1.55;0.80;;;;;;;;;;4963035;28;20037;-69
2023/07/23 03:31:52;;;;;;;2.22;0.70;;;;;;;;;;4971251;28;20039;-69
2023/07/23 03:34:17;;;;;;;4.53;0.80;;;;;;;;;;4974113;28;20062;-69
2023/07/23 03:36:42;;;;;;;4.82;0.50;;;;;;;;;;4973977;28;20063;-69
2023/07/23 03:39:08;;;;;;;2.30;0.70;;;;;;;;;;4956820;28;20037;-69
2023/07/23 03:41:33;;;;;;;3.88;0.73;;;;;;;;;;4973062;28;20042;-69
2023/07/23 03:43:58;;;;;;;2.33;0.70;;;;;;;;;;4974073;28;20038;-69
2023/07/23 03:46:24;;;;;;;3.22;1.00;;;;;;;;;;4974324;28;20464;-69
2023/07/23 03:48:49;;;;;;;3.17;0.80;;;;;;;;;;4974112;28;20042;-69
2023/07/23 03:51:15;;;;;;;5.68;1.23;;;;;;;;;;4974343;28;20527;-69
2023/07/23 03:53:40;;;;;;;2.88;0.90;;;;;;;;;;4972833;28;20485;-69
2023/07/23 03:56:05;;;;;;;2.83;0.65;;;;;;;;;;4974318;28;20399;-69
2023/07/23 03:58:31;;;;;;;1.92;0.88;;;;;;;;;;4974244;28;20042;-69
2023/07/23 04:00:56;;;;;;;3.70;1.00;;;;;;;;;;4973735;28;20525;-69
2023/07/23 04:03:21;;;;;;;3.63;0.90;;;;;;;;;;4973706;28;20173;-69
2023/07/23 04:05:47;;;;;;;1.75;0.90;;;;;;;;;;4972951;28;20054;-69
2023/07/23 04:08:12;;;;;;;4.82;1.27;;;;;;;;;;4973826;28;20038;-69
2023/07/23 04:10:38;;;;;;;2.50;0.90;;;;;;;;;;4973572;28;20054;-69
2023/07/23 04:13:03;;;;;;;3.10;1.00;;;;;;;;;;4974303;28;20535;-69
2023/07/23 04:15:30;;;;;;;3.70;1.10;;;;;;;;;;4973771;28;20517;-69
2023/07/23 04:17:56;;;;;;;5.47;0.85;;;;;;;;;;4973904;28;20047;-69
2023/07/23 04:20:21;;;;;;;2.45;1.10;;;;;;;;;;4973402;28;20364;-69
2023/07/23 04:22:46;;;;;;;6.65;1.23;;;;;;;;;;4974112;28;20473;-69
2023/07/23 04:25:12;;;;;;;5.40;1.20;;;;;;;;;;4972354;28;20439;-69
2023/07/23 04:27:37;;;;;;;2.92;1.05;;;;;;;;;;4974334;28;20558;-69
2023/07/23 04:30:02;;;;;;;3.00;1.10;;;;;;;;;;4973534;28;20117;-69
2023/07/23 04:32:28;;;;;;;5.38;1.00;;;;;;;;;;4973916;28;20093;-69
2023/07/23 04:34:53;;;;;;;3.38;1.05;;;;;;;;;;4973525;28;20038;-69
2023/07/23 04:37:18;;;;;;;6.43;0.98;;;;;;;;;;4973494;28;20478;-69
2023/07/23 04:39:44;;;;;;;6.20;0.90;;;;;;;;;;4973213;28;20751;-69
2023/07/23 04:42:09;;;;;;;7.32;1.27;;;;;;;;;;4973685;28;20491;-69
2023/07/23 04:44:34;;;;;;;4.75;1.20;;;;;;;;;;4975655;28;20476;-69
2023/07/23 04:47:00;;;;;;;3.85;0.95;;;;;;;;;;4976212;28;20442;-69
2023/07/23 04:49:25;;;;;;;3.35;1.35;;;;;;;;;;4975901;28;20467;-69
2023/07/23 04:51:50;;;;;;;8.40;1.30;;;;;;;;;;4977136;28;20042;-69
2023/07/23 04:54:16;;;;;;;7.07;1.83;;;;;;;;;;4977132;28;20398;-69
2023/07/23 04:56:41;;;;;;;8.27;1.15;;;;;;;;;;4977113;28;20097;-69
2023/07/23 04:59:07;;;;;;;3.40;1.00;;;;;;;;;;4976505;28;20038;-69
2023/07/23 05:01:33;;;;;;;7.63;1.00;;;;;;;;;;4976412;28;20051;-69
2023/07/23 05:03:58;;;;;;;4.38;1.02;;;;;;;;;;4976631;28;20093;-69
2023/07/23 05:06:23;;;;;;;3.58;0.80;;;;;;;;;;4976250;28;20041;-69
2023/07/23 05:08:49;;;;;;;1.98;0.60;;;;;;;;;;4975646;28;20035;-69
2023/07/23 05:11:14;;;;;;;3.42;0.90;;;;;;;;;;4976856;28;20062;-69
2023/07/23 05:13:39;;;;;;;4.18;1.08;;;;;;;;;;4976436;28;20039;-70
2023/07/23 05:16:05;;;;;;;2.10;0.90;;;;;;;;;;4976689;28;20035;-69
2023/07/23 05:18:31;;;;;;;6.32;0.98;;;;;;;;;;4976904;28;20039;-69
2023/07/23 05:20:56;;;;;;;4.57;0.90;;;;;;;;;;4975202;28;20046;-69
2023/07/23 05:23:22;;;;;;;5.35;0.90;;;;;;;;;;4975527;28;20043;-69
2023/07/23 05:25:47;;;;;;;6.07;0.73;;;;;;;;;;4975214;28;20055;-69
2023/07/23 05:28:12;;;;;;;3.97;0.88;;;;;;;;;;4976709;28;20027;-69
2023/07/23 05:30:38;;;;;;;4.85;0.90;;;;;;;;;;4974995;28;20042;-69
2023/07/23 05:33:04;;;;;;;4.10;0.95;;;;;;;;;;4976326;28;20117;-69
2023/07/23 05:35:29;;;;;;;2.55;0.90;;;;;;;;;;4976080;28;20038;-69
2023/07/23 05:37:54;;;;;;;3.30;1.23;;;;;;;;;;4976186;28;20137;-69
2023/07/23 05:40:20;;;;;;;5.57;1.30;;;;;;;;;;5007078;28;20046;-68
2023/07/23 05:42:45;;;;;;;4.00;1.20;;;;;;;;;;4976045;28;20050;-68
2023/07/23 05:45:11;;;;;;;3.47;1.30;;;;;;;;;;4976230;28;20039;-68
2023/07/23 05:47:36;;;;;;;3.25;1.30;;;;;;;;;;4976401;28;20510;-68
2023/07/23 05:50:02;;;;;;;4.82;1.30;;;;;;;;;;4974685;28;20491;-68
2023/07/23 05:52:27;;;;;;;3.38;1.10;;;;;;;;;;4975776;28;20054;-68
2023/07/23 05:54:53;;;;;;;4.45;1.60;;;;;;;;;;4974326;28;20039;-68
2023/07/23 05:57:18;;;;;;;6.93;1.50;;;;;;;;;;4974742;28;20059;-68
2023/07/23 05:59:43;;;;;;;4.30;1.60;;;;;;;;;;4975488;28;20042;-68
2023/07/23 06:02:09;;;;;;;6.50;2.33;;;;;;;;;;4975834;28;20042;-68
2023/07/23 06:04:34;;;;;;;6.70;1.77;;;;;;;;;;4975640;28;20038;-68
2023/07/23 06:07:00;;;;;;;5.53;2.08;;;;;;;;;;4975511;28;20045;-68
2023/07/23 06:09:26;;;;;;;7.75;2.10;;;;;;;;;;4975642;28;20039;-68
2023/07/23 06:11:53;;;;;;;5.85;1.95;;;;;;;;;;4974322;28;20042;-69
2023/07/23 06:14:18;;;;;;;4.72;1.48;;;;;;;;;;4975666;28;20035;-68
2023/07/23 06:16:43;;;;;;;6.57;1.40;;;;;;;;;;4975443;28;20116;-68
2023/07/23 06:19:09;;;;;;;5.90;1.50;;;;;;;;;;4975601;28;20040;-68
2023/07/23 06:21:34;;;;;;;4.88;1.38;;;;;;;;;;4975410;28;20038;-68
2023/07/23 06:23:59;;;;;;;5.03;1.63;;;;;;;;;;4975333;28;20042;-68
2023/07/23 06:26:25;;;;;;;3.53;1.30;;;;;;;;;;4975528;28;20050;-69
2023/07/23 06:28:50;;;;;;;5.85;1.90;;;;;;;;;;4974926;28;20039;-69
2023/07/23 06:31:15;;;;;;;3.70;1.13;;;;;;;;;;4973870;28;20043;-69
2023/07/23 06:33:41;;;;;;;5.03;1.60;;;;;;;;;;4975230;28;20057;-69
2023/07/23 06:36:06;;;;;;;2.72;1.30;;;;;;;;;;4975175;28;20078;-68
2023/07/23 06:38:31;;;;;;;2.88;1.20;;;;;;;;;;4975184;28;20380;-69
2023/07/23 06:40:56;;;;;;;5.13;1.60;;;;;;;;;;4975099;28;20043;-69
2023/07/23 06:43:23;;;;;;;4.47;1.75;;;;;;;;;;4975142;28;20122;-69
2023/07/23 06:45:50;;;;;;;3.78;1.27;;;;;;;;;;4974020;28;20043;-68
2023/07/23 06:48:18;;;;;;;4.22;1.48;;;;;;;;;;4975341;28;20118;-69
2023/07/23 06:50:46;;;;;;;3.15;1.25;;;;;;;;;;4972293;28;20039;-69
2023/07/23 06:53:12;;;;;;;4.40;1.40;;;;;;;;;;4973573;28;20078;-69
2023/07/23 06:56:06;;;;;;;5.45;1.35;;;;;;;;;;4973543;28;20097;-69
2023/07/23 06:58:36;;;;;;;4.20;1.60;;;;;;;;;;4973762;28;20046;-69
2023/07/23 07:01:02;;;;;;;6.20;1.63;;;;;;;;;;4972236;28;20038;-68
2023/07/23 07:03:28;;;;;;;4.70;1.63;;;;;;;;;;4974436;28;20486;-69
2023/07/23 07:05:53;;;;;;;3.60;1.50;;;;;;;;;;4973793;28;20443;-69
2023/07/23 07:08:19;;;;;;;4.55;1.65;;;;;;;;;;4974281;28;20415;-69
2023/07/23 07:10:46;;;;;;;5.93;1.60;;;;;;;;;;4974204;28;20038;-69
2023/07/23 07:13:11;;;;;;;4.38;1.50;;;;;;;;;;4973260;28;20410;-68
2023/07/23 07:15:36;;;;;;;5.55;1.98;;;;;;;;;;4974203;28;20133;-69
2023/07/23 07:18:03;;;;;;;3.67;1.60;;;;;;;;;;4974711;28;20042;-69
2023/07/23 07:20:28;;;;;;;5.05;1.75;;;;;;;;;;4974556;28;20439;-68
2023/07/23 07:22:54;;;;;;;5.32;1.77;;;;;;;;;;4977806;28;20034;-69
2023/07/23 07:25:19;;;;;;;5.70;1.70;;;;;;;;;;4988275;28;20120;-69
2023/07/23 07:27:44;;;;;;;5.32;1.80;;;;;;;;;;4974533;28;20039;-69
2023/07/23 07:30:10;;;;;;;5.07;1.70;;;;;;;;;;4974270;28;20076;-68
2023/07/23 07:32:35;;;;;;;7.25;1.70;;;;;;;;;;4973967;28;20126;-69
2023/07/23 07:35:01;;;;;;;4.38;1.50;;;;;;;;;;4974275;28;20165;-69
2023/07/23 07:37:27;;;;;;;5.65;2.20;;;;;;;;;;4974257;28;20482;-68
2023/07/23 07:39:52;;;;;;;3.83;1.30;;;;;;;;;;4973486;28;20494;-69
2023/07/23 07:42:18;;;;;;;4.55;1.50;;;;;;;;;;4973646;28;20098;-69
2023/07/23 07:44:43;;;;;;;2.72;1.33;;;;;;;;;;4972820;28;20530;-69
2023/07/23 07:47:09;;;;;;;4.22;1.30;;;;;;;;;;4973462;28;20043;-68
2023/07/23 07:49:34;;;;;;;5.53;1.65;;;;;;;;;;4956735;28;20049;-69
2023/07/23 07:51:59;;;;;;;6.10;1.42;;;;;;;;;;4970216;28;20116;-69
2023/07/23 07:54:25;;;;;;;4.22;1.30;;;;;;;;;;4970029;28;20050;-69
2023/07/23 07:56:51;;;;;;;5.20;1.15;;;;;;;;;;4970276;28;20398;-69
2023/07/23 07:59:16;;;;;;;3.55;1.63;;;;;;;;;;4968882;28;20379;-69
2023/07/23 08:01:42;;;;;;;5.30;1.60;;;;;;;;;;4971295;28;20050;-69
2023/07/23 08:04:09;;;;;;;6.65;1.42;;;;;;;;;;4970802;28;20049;-69
2023/07/23 08:06:36;;;;;;;4.82;1.88;;;;;;;;;;4971367;28;20141;-69
2023/07/23 08:09:03;;;;;;;4.75;1.63;;;;;;;;;;4970184;28;20414;-68
2023/07/23 08:11:29;;;;;;;6.18;1.40;;;;;;;;;;4971299;28;20042;-69
2023/07/23 08:13:55;;;;;;;9.02;2.10;;;;;;;;;;4970237;28;20031;-69
2023/07/23 08:16:22;;;;;;;8.60;1.90;;;;;;;;;;4972253;28;20054;-69
2023/07/23 08:18:48;;;;;;;9.43;3.20;;;;;;;;;;4970589;28;20055;-69
2023/07/23 08:21:14;;;;;;;6.68;2.08;;;;;;;;;;4974965;28;20039;-69
2023/07/23 08:23:39;;;;;;;7.38;1.90;;;;;;;;;;4966778;28;20502;-69
2023/07/23 08:26:05;;;;;;;5.82;1.95;;;;;;;;;;4975420;28;20093;-69
2023/07/23 08:28:33;;;;;;;10.10;2.63;;;;;;;;;;4973218;28;20035;-69
2023/07/23 08:31:00;;;;;;;7.35;3.00;;;;;;;;;;4974441;28;20074;-69
2023/07/23 08:33:28;;;;;;;7.50;2.10;;;;;;;;;;4971212;28;20063;-69
2023/07/23 08:35:54;;;;;;;6.50;2.00;;;;;;;;;;4973811;28;20039;-69
2023/07/23 08:38:19;;;;;;;9.95;2.15;;;;;;;;;;4973399;28;20525;-69
2023/07/23 08:40:45;;;;;;;6.20;2.25;;;;;;;;;;4973410;28;20043;-69
2023/07/23 08:43:48;;;;;;;11.35;3.33;;;;;;;;;;4972389;28;20161;-69
2023/07/23 08:46:21;;;;;;;9.52;2.65;;;;;;;;;;4974005;28;20050;-69
2023/07/23 08:48:58;;;;;;;9.48;2.88;;;;;;;;;;4974196;28;20045;-69
2023/07/23 08:51:25;;;;;;;6.07;2.00;;;;;;;;;;4973167;28;20034;-69
2023/07/23 08:53:51;;;;;;;5.63;2.30;;;;;;;;;;4973644;28;20034;-69
2023/07/23 08:56:17;;;;;;;9.35;2.53;;;;;;;;;;4975103;28;20042;-69
2023/07/23 08:58:44;;;;;;;7.30;2.63;;;;;;;;;;4975101;28;20047;-70
2023/07/23 09:01:13;;;;;;;6.97;3.10;;;;;;;;;;4973123;28;20410;-69
2023/07/23 09:03:38;;;;;;;5.32;2.92;;;;;;;;;;4972113;28;20089;-69
2023/07/23 09:06:05;;;;;;;8.48;3.15;;;;;;;;;;5007323;28;20031;-68
2023/07/23 09:08:31;;;;;;;7.15;2.90;;;;;;;;;;4976536;28;20090;-68
2023/07/23 09:10:56;;;;;;;9.30;3.03;;;;;;;;;;4975712;28;20467;-68
2023/07/23 09:13:22;;;;;;;6.80;2.60;;;;;;;;;;4976765;28;20497;-68
2023/07/23 09:15:54;;;;;;;7.55;2.85;;;;;;;;;;4976841;28;20046;-69
2023/07/23 09:18:20;;;;;;;6.93;3.30;;;;;;;;;;4977001;28;20057;-68
2023/07/23 09:20:48;;;;;;;6.38;3.15;;;;;;;;;;4976144;28;20035;-69
2023/07/23 09:23:14;;;;;;;6.85;3.00;;;;;;;;;;4976918;28;20035;-69
2023/07/23 09:25:43;;;;;;;7.22;2.75;;;;;;;;;;4976668;28;20459;-70
2023/07/23 09:28:12;;;;;;;8.88;3.88;;;;;;;;;;4966693;28;20082;-69
2023/07/23 09:30:37;;;;;;;8.02;3.00;;;;;;;;;;4974008;28;20046;-69
2023/07/23 09:33:04;;;;;;;4.93;2.47;;;;;;;;;;4975325;28;20081;-69
2023/07/23 09:35:30;;;;;;;5.63;2.88;;;;;;;;;;4976176;28;20495;-69
2023/07/23 09:37:57;;;;;;;6.28;2.53;;;;;;;;;;4975094;28;20097;-69
2023/07/23 09:40:32;;;;;;;9.43;3.08;;;;;;;;;;4976054;28;20475;-70
2023/07/23 09:42:57;;;;;;;6.40;2.58;;;;;;;;;;4976328;28;20039;-69
2023/07/23 09:45:22;;;;;;;6.00;2.42;;;;;;;;;;4976460;28;20026;-70
2023/07/23 09:47:49;;;;;;;4.88;2.28;;;;;;;;;;4976278;28;20054;-69
2023/07/23 09:50:15;;;;;;;4.50;2.53;;;;;;;;;;4975183;28;20030;-69
2023/07/23 09:52:40;;;;;;;5.60;2.75;;;;;;;;;;4973276;28;20522;-69
2023/07/23 09:55:06;;;;;;;5.68;2.50;;;;;;;;;;4976402;28;20039;-69
2023/07/23 09:57:33;;;;;;;5.07;2.60;;;;;;;;;;4975002;28;20133;-70
2023/07/23 09:59:59;;;;;;;5.57;2.85;;;;;;;;;;4975458;28;20578;-67
2023/07/23 10:02:25;;;;;;;5.47;2.88;;;;;;;;;;4974928;28;20117;-67
2023/07/23 10:04:51;;;;;;;6.07;2.70;;;;;;;;;;4974776;28;20399;-67
2023/07/23 10:07:16;;;;;;;5.43;2.60;;;;;;;;;;4975705;28;20034;-67
2023/07/23 10:09:42;;;;;;;5.15;2.97;;;;;;;;;;4975843;28;20147;-69
2023/07/23 10:12:07;;;;;;;6.60;3.00;;;;;;;;;;4975854;28;20057;-69
2023/07/23 10:14:33;;;;;;;4.45;2.90;;;;;;;;;;4975403;28;20055;-70
2023/07/23 10:16:59;;;;;;;5.10;2.80;;;;;;;;;;4975828;28;20031;-70
2023/07/23 10:19:24;;;;;;;6.50;2.55;;;;;;;;;;4968526;28;20046;-69
2023/07/23 10:21:50;;;;;;;5.38;2.50;;;;;;;;;;4974528;28;20035;-69
2023/07/23 10:24:15;;;;;;;4.20;2.50;;;;;;;;;;4974515;28;20101;-69
2023/07/23 10:26:43;;;;;;;6.18;2.70;;;;;;;;;;4975386;28;20049;-69
2023/07/23 10:29:14;;;;;;;4.60;2.70;;;;;;;;;;4973741;28;20117;-69
2023/07/23 10:31:41;;;;;;;6.20;2.47;;;;;;;;;;4974508;28;20043;-69
2023/07/23 10:34:39;;;;;;;4.35;2.53;;;;;;;;;;4974193;28;20077;-69
2023/07/23 10:37:13;;;;;;;4.63;2.95;;;;;;;;;;4969034;28;20053;-69
2023/07/23 10:39:40;;;;;;;4.80;2.72;;;;;;;;;;4975301;28;20070;-69
2023/07/23 10:42:05;;;;;;;4.22;2.50;;;;;;;;;;4974971;28;20042;-69
2023/07/23 10:44:31;;;;;;;7.63;2.58;;;;;;;;;;4975198;28;20086;-70
2023/07/23 10:46:59;;;;;;;5.88;2.40;;;;;;;;;;4975188;28;20082;-69
2023/07/23 10:49:29;;;;;;;4.80;2.47;;;;;;;;;;4973856;28;20467;-69
2023/07/23 10:52:11;;;;;;;5.18;2.22;;;;;;;;;;4975058;28;20482;-69
2023/07/23 10:54:37;;;;;;;3.33;2.20;;;;;;;;;;4974295;28;20507;-69
2023/07/23 10:57:04;;;;;;;5.47;2.38;;;;;;;;;;4974341;28;20043;-69
2023/07/23 10:59:30;;;;;;;5.22;2.50;;;;;;;;;;4963779;28;20070;-69
2023/07/23 11:01:55;;;;;;;4.90;2.40;;;;;;;;;;4972203;28;20042;-69
2023/07/23 11:04:25;;;;;;;4.90;2.42;;;;;;;;;;4974048;28;20065;-69
2023/07/23 11:07:00;;;;;;;6.05;2.53;;;;;;;;;;4974144;28;20486;-69
2023/07/23 11:09:27;;;;;;;4.80;2.58;;;;;;;;;;4969825;28;20046;-69
2023/07/23 11:11:54;;;;;;;4.75;2.30;;;;;;;;;;4972032;28;20039;-69
2023/07/23 11:14:27;;;;;;;5.50;2.42;;;;;;;;;;4972865;28;20089;-69
2023/07/23 11:16:53;;;;;;;;;;;;;;;;;;4974007;28;20518;-70
2023/07/23 11:19:20;;;;;;;4.30;2.25;;;;;;;;;;4974153;28;20285;-69
2023/07/23 11:21:45;;;;;;;5.93;2.60;;;;;;;;;;4974326;28;20046;-68
2023/07/23 11:24:10;;;;;;;5.20;2.60;;;;;;;;;;4974260;28;20045;-68
2023/07/23 11:26:36;;;;;;;4.63;2.40;;;;;;;;;;4973704;28;20117;-68
2023/07/23 11:29:03;;;;;;;6.28;2.20;;;;;;;;;;4971745;28;20110;-69
2023/07/23 11:31:29;;;;;;;5.63;3.42;;;;;;;;;;4972844;28;20043;-69
2023/07/23 11:33:56;;;;;;;5.03;2.17;;;;;;;;;;4972868;28;20041;-69
2023/07/23 11:36:22;;;;;;;7.10;2.33;;;;;;;;;;4973366;28;20046;-69
2023/07/23 11:38:53;;;;;;;3.00;1.90;;;;;;;;;;5004048;28;20105;-69
2023/07/23 11:41:18;;;;;;;4.25;2.38;;;;;;;;;;4971858;28;20569;-68
2023/07/23 11:43:44;;;;;;;6.25;2.13;;;;;;;;;;4971897;28;20043;-69
2023/07/23 11:46:09;;;;;;;4.47;2.05;;;;;;;;;;4973307;28;20050;-68
2023/07/23 11:48:36;;;;;;;5.28;1.80;;;;;;;;;;4973830;28;20081;-69
2023/07/23 11:51:02;;;;;;;5.70;2.10;;;;;;;;;;4973470;28;20101;-68
2023/07/23 11:53:35;;;;;;;5.85;2.25;;;;;;;;;;4974091;28;20038;-69
2023/07/23 11:56:05;;;;;;;4.45;1.92;;;;;;;;;;4970235;28;20033;-69
2023/07/23 11:58:32;;;;;;;4.22;2.00;;;;;;;;;;4974444;28;20045;-69
2023/07/23 12:00:57;;;;;;;5.80;2.30;;;;;;;;;;4975668;28;20467;-68
2023/07/23 12:03:22;;;;;;;4.95;1.90;;;;;;;;;;4977282;28;20118;-68
2023/07/23 12:05:50;;;;;;;7.07;2.17;;;;;;;;;;4976934;28;20039;-69
2023/07/23 12:08:15;;;;;;;5.22;1.98;;;;;;;;;;4976988;28;20122;-68
2023/07/23 12:10:40;;;;;;;5.13;1.85;;;;;;;;;;4975212;28;20041;-69
2023/07/23 12:13:07;;;;;;;8.98;2.17;;;;;;;;;;4975917;28;20046;-69
2023/07/23 12:15:32;;;;;;;3.72;1.90;;;;;;;;;;4975731;28;20036;-69
2023/07/23 12:17:58;;;;;;;5.35;2.05;;;;;;;;;;4976728;28;20126;-69
2023/07/23 12:20:25;;;;;;;4.07;2.17;;;;;;;;;;4975750;28;20117;-68
2023/07/23 12:22:55;;;;;;;3.33;1.58;;;;;;;;;;4976357;28;20041;-69
2023/07/23 12:25:23;;;;;;;6.55;1.77;;;;;;;;;;4975429;28;20066;-69
2023/07/23 12:27:48;;;;;;;9.13;2.30;;;;;;;;;;4974224;28;20061;-68
2023/07/23 12:30:14;;;;;;;4.88;2.10;;;;;;;;;;4973946;28;20117;-69
2023/07/23 12:32:39;;;;;;;5.80;1.90;;;;;;;;;;4977056;28;20142;-68
2023/07/23 12:35:06;;;;;;;4.15;2.20;;;;;;;;;;4974597;28;20093;-69
2023/07/23 12:37:32;;;;;;;4.30;2.15;;;;;;;;;;4977141;28;20034;-68
2023/07/23 12:39:57;;;;;;;4.05;1.98;;;;;;;;;;4976631;28;20412;-68
2023/07/23 12:42:23;;;;;;;5.05;2.03;;;;;;;;;;4973124;28;20046;-69
2023/07/23 12:44:48;;;;;;;5.68;2.42;;;;;;;;;;4970038;28;20398;-69
2023/07/23 12:47:14;;;;;;;6.13;2.55;;;;;;;;;;4975404;28;20031;-68
2023/07/23 12:49:39;;;;;;;7.60;2.05;;;;;;;;;;4975070;28;20117;-68
2023/07/23 12:52:05;;;;;;;6.90;1.98;;;;;;;;;;4974453;28;20031;-69
2023/07/23 12:54:31;;;;;;;4.05;2.20;;;;;;;;;;4975160;28;20035;-69
2023/07/23 12:56:56;;;;;;;6.38;2.10;;;;;;;;;;4976458;28;20054;-68
2023/07/23 12:59:22;;;;;;;4.22;1.90;;;;;;;;;;4975601;28;20049;-68
2023/07/23 13:01:48;;;;;;;6.20;2.15;;;;;;;;;;4976330;28;20054;-68
2023/07/23 13:04:13;;;;;;;5.63;2.05;;;;;;;;;;4976293;28;20117;-68
2023/07/23 13:06:38;;;;;;;5.90;2.30;;;;;;;;;;4977172;28;20130;-68
2023/07/23 13:09:04;;;;;;;6.18;2.15;;;;;;;;;;4976300;28;20121;-69
2023/07/23 13:11:29;;;;;;;4.78;2.20;;;;;;;;;;5005986;28;20043;-68
2023/07/23 13:13:55;;;;;;;8.32;1.80;;;;;;;;;;4976340;28;20032;-68
2023/07/23 13:16:20;;;;;;;3.88;1.80;;;;;;;;;;4977029;28;20359;-68
2023/07/23 13:18:45;;;;;;;4.75;1.90;;;;;;;;;;4976448;28;20053;-69
2023/07/23 13:21:10;;;;;;;6.60;2.22;;;;;;;;;;4976447;28;20034;-68
2023/07/23 13:23:36;;;;;;;5.03;1.67;;;;;;;;;;4976527;28;20035;-68
2023/07/23 13:26:01;;;;;;;4.13;1.90;;;;;;;;;;4975217;28;20058;-68
2023/07/23 13:28:27;;;;;;;3.22;1.52;;;;;;;;;;4976353;28;20046;-68
2023/07/23 13:30:54;;;;;;;4.78;1.77;;;;;;;;;;4976243;28;20078;-68
2023/07/23 13:33:19;;;;;;;5.55;1.50;;;;;;;;;;4972322;28;20043;-68
2023/07/23 13:35:44;;;;;;;3.17;1.63;;;;;;;;;;4975111;28;20042;-68
2023/07/23 13:38:10;;;;;;;3.38;1.55;;;;;;;;;;4976240;28;20030;-68
2023/07/23 13:40:35;;;;;;;3.65;1.85;;;;;;;;;;4976000;28;20094;-68
2023/07/23 13:43:01;;;;;;;3.33;1.77;;;;;;;;;;4973968;28;20031;-68
2023/07/23 13:45:26;;;;;;;5.40;1.90;;;;;;;;;;4974602;28;20041;-68
2023/07/23 13:47:51;;;;;;;3.75;1.60;;;;;;;;;;4975952;28;20484;-68
2023/07/23 13:50:17;;;;;;;3.13;1.60;;;;;;;;;;4975806;28;20042;-68
2023/07/23 13:52:42;;;;;;;2.45;1.10;;;;;;;;;;4975874;28;20061;-68
2023/07/23 13:55:08;;;;;;;2.63;1.13;;;;;;;;;;4975812;28;20042;-68
2023/07/23 13:57:33;;;;;;;3.70;1.50;;;;;;;;;;4975446;28;20034;-69
2023/07/23 14:00:01;;;;;;;2.03;1.00;;;;;;;;;;4975484;28;20055;-68
2023/07/23 14:02:26;;;;;;;2.08;0.95;;;;;;;;;;4976113;28;20042;-68
2023/07/23 14:04:52;;;;;;;2.88;0.85;;;;;;;;;;4975344;28;20529;-68
2023/07/23 14:07:17;;;;;;;1.83;0.90;;;;;;;;;;4975178;28;20042;-69
2023/07/23 14:09:42;;;;;;;4.40;1.02;;;;;;;;;;4975415;28;20038;-68
2023/07/23 14:12:08;;;;;;;2.35;1.00;;;;;;;;;;4975224;28;20037;-68
2023/07/23 14:14:33;;;;;;;2.15;0.90;;;;;;;;;;4975619;28;20089;-68
2023/07/23 14:16:59;;;;;;;2.20;0.75;;;;;;;;;;4972962;28;20042;-68
2023/07/23 14:19:24;;;;;;;1.08;0.70;;;;;;;;;;4974613;28;20534;-68
2023/07/23 14:21:49;;;;;;;2.95;0.93;;;;;;;;;;4975381;28;20038;-68
2023/07/23 14:24:18;;;;;;;2.28;0.88;;;;;;;;;;4975474;28;20047;-68
2023/07/23 14:26:44;;;;;;;1.33;0.80;;;;;;;;;;4975105;28;20031;-68
2023/07/23 14:29:09;;;;;;;3.10;1.00;;;;;;;;;;4975112;28;20606;-68
2023/07/23 14:31:35;;;;;;;2.72;1.15;;;;;;;;;;4974274;28;20096;-68
2023/07/23 14:34:00;;;;;;;2.70;1.02;;;;;;;;;;4974334;28;20459;-68
2023/07/23 14:36:26;;;;;;;3.08;0.95;;;;;;;;;;4971771;28;20387;-69